aviador You're here:

KGPH Decoded Metar

in
Report Time2017-05-26 10:55:00
UTC Time2017-05-26 11:15:34
Flight Rules vfr VFR
Wind310° at 05 kt
W.Decomp.*RWY 36: 3.2 kt HW 3.8 kt LCW
W.Rank310° ranks 8
Current wind is below 310° avg. (8.1)
Visibility9999 m
Phenomena:N/A
Clouds:N/A
Expected CloudBase > 800 ft AGL from Temp-Dew spread
CeilingNone
Temp17°C
Dew Point15°C (88% RH)
AAT16.8°C
QNH1004 hPa
Raw Report
KGPH 261055Z AUTO 31005KT 10SM 17/15 A2965 RMK AO2 LTG DSNT E=

Extra information for KGPH:More info

Social comments